Time;durP1;ratioP1;P1;durP2;ratioP2;P2;SDS_P1;SDS_P2;PMS_P1;PMS_P2;Temp;Humidity;BMP_temperature;BMP_pressure;BME280_temperature;BME280_humidity;BME280_pressure;Samples;Min_cycle;Max_cycle;Signal;HPM_P1;HPM_P2
2023/12/26 00:01:32;;;;;;;0.40;0.40;;;;;;;;;;5052392;28;20037;-79
2023/12/26 00:03:57;;;;;;;2.58;1.17;;;;;;;;;;5071591;28;20032;-81
2023/12/26 00:06:26;;;;;;;2.22;0.80;;;;;;;;;;5069897;28;20024;-80
2023/12/26 00:08:54;;;;;;;2.83;1.38;;;;;;;;;;5054833;28;20558;-80
2023/12/26 00:11:19;;;;;;;1.48;0.98;;;;;;;;;;5073291;28;20028;-80
2023/12/26 00:13:45;;;;;;;1.02;0.95;;;;;;;;;;5056442;28;20024;-81
2023/12/26 00:16:11;;;;;;;1.17;0.73;;;;;;;;;;5074582;28;20046;-80
2023/12/26 00:18:39;;;;;;;1.83;0.80;;;;;;;;;;5075503;28;20016;-80
2023/12/26 00:21:04;;;;;;;0.88;0.73;;;;;;;;;;5077485;28;20029;-80
2023/12/26 00:23:30;;;;;;;1.52;0.82;;;;;;;;;;5074105;28;20035;-80
2023/12/26 00:25:55;;;;;;;0.85;0.60;;;;;;;;;;5075037;28;20804;-79
2023/12/26 00:28:21;;;;;;;0.52;0.52;;;;;;;;;;5075472;28;20842;-79
2023/12/26 00:30:46;;;;;;;3.72;1.13;;;;;;;;;;5074057;28;20020;-78
2023/12/26 00:33:12;;;;;;;3.78;1.90;;;;;;;;;;5075977;28;20052;-79
2023/12/26 00:35:37;;;;;;;1.02;0.80;;;;;;;;;;5073681;28;20032;-81
2023/12/26 00:38:05;;;;;;;0.75;0.75;;;;;;;;;;5058302;28;20036;-80
2023/12/26 00:40:31;;;;;;;0.47;0.47;;;;;;;;;;5072936;28;20043;-80
2023/12/26 00:42:56;;;;;;;0.45;0.40;;;;;;;;;;5074301;28;20496;-80
2023/12/26 00:45:22;;;;;;;0.73;0.73;;;;;;;;;;5074763;28;20174;-81
2023/12/26 00:47:50;;;;;;;0.85;0.63;;;;;;;;;;5077261;28;20032;-80
2023/12/26 00:50:16;;;;;;;3.42;0.75;;;;;;;;;;5073307;28;20111;-79
2023/12/26 00:52:42;;;;;;;0.65;0.65;;;;;;;;;;5055396;28;21919;-81
2023/12/26 00:55:08;;;;;;;1.25;1.02;;;;;;;;;;5075416;28;20028;-79
2023/12/26 00:57:34;;;;;;;2.30;1.00;;;;;;;;;;5074240;28;20099;-78
2023/12/26 01:00:00;;;;;;;0.52;0.50;;;;;;;;;;5074702;28;20078;-80
2023/12/26 01:02:26;;;;;;;0.68;0.68;;;;;;;;;;5073415;28;20105;-80
2023/12/26 01:04:56;;;;;;;0.82;0.82;;;;;;;;;;5074957;28;20041;-78
2023/12/26 01:07:21;;;;;;;2.33;1.25;;;;;;;;;;5075041;28;20078;-80
2023/12/26 01:09:47;;;;;;;1.50;1.33;;;;;;;;;;5074457;28;20029;-79
2023/12/26 01:12:13;;;;;;;2.00;0.57;;;;;;;;;;5076367;28;20484;-79
2023/12/26 01:14:40;;;;;;;1.25;1.05;;;;;;;;;;5073798;28;20076;-79
2023/12/26 01:17:06;;;;;;;1.27;0.98;;;;;;;;;;5060228;28;20097;-80
2023/12/26 01:19:31;;;;;;;2.75;1.15;;;;;;;;;;5077788;28;20036;-79
2023/12/26 01:21:57;;;;;;;2.00;0.93;;;;;;;;;;5058085;28;20032;-80
2023/12/26 01:24:22;;;;;;;1.77;1.13;;;;;;;;;;5076426;28;20025;-79
2023/12/26 01:26:47;;;;;;;0.52;0.50;;;;;;;;;;5077227;28;20040;-81
2023/12/26 01:29:13;;;;;;;4.20;1.25;;;;;;;;;;5077528;28;20052;-79
2023/12/26 01:31:56;;;;;;;1.23;1.10;;;;;;;;;;5077500;28;20113;-78
2023/12/26 01:34:21;;;;;;;0.98;0.93;;;;;;;;;;5075150;28;20047;-80
2023/12/26 01:36:47;;;;;;;2.70;1.25;;;;;;;;;;5058717;28;20335;-80
2023/12/26 01:39:14;;;;;;;0.90;0.90;;;;;;;;;;5073808;28;20457;-80
2023/12/26 01:41:39;;;;;;;7.97;1.75;;;;;;;;;;5075086;28;20054;-80
2023/12/26 01:44:07;;;;;;;1.52;1.00;;;;;;;;;;5075075;28;20519;-81
2023/12/26 01:46:33;;;;;;;1.52;0.82;;;;;;;;;;5059723;28;20025;-79
2023/12/26 01:49:00;;;;;;;3.25;1.00;;;;;;;;;;5077258;28;20055;-79
2023/12/26 01:51:32;;;;;;;2.65;0.90;;;;;;;;;;5058175;28;20040;-79
2023/12/26 01:53:59;;;;;;;1.40;0.77;;;;;;;;;;5071089;28;20422;-80
2023/12/26 01:56:26;;;;;;;1.48;1.23;;;;;;;;;;5076353;28;20036;-81
2023/12/26 01:58:54;;;;;;;1.30;0.80;;;;;;;;;;5076734;28;20111;-80
2023/12/26 02:01:20;;;;;;;1.15;0.98;;;;;;;;;;5056661;28;20092;-79
2023/12/26 02:03:46;;;;;;;3.63;1.20;;;;;;;;;;5074874;28;20107;-80
2023/12/26 02:06:14;;;;;;;4.80;1.77;;;;;;;;;;5073762;28;20549;-80
2023/12/26 02:08:40;;;;;;;1.75;0.90;;;;;;;;;;5074604;28;20522;-80
2023/12/26 02:11:06;;;;;;;0.85;0.45;;;;;;;;;;5055522;28;20024;-81
2023/12/26 02:13:34;;;;;;;10.60;1.65;;;;;;;;;;5073602;28;20060;-78
2023/12/26 02:16:06;;;;;;;1.10;0.73;;;;;;;;;;5073402;28;20102;-79
2023/12/26 02:18:33;;;;;;;0.70;0.40;;;;;;;;;;5054912;28;20111;-80
2023/12/26 02:20:58;;;;;;;2.13;0.90;;;;;;;;;;5055378;28;20089;-79
2023/12/26 02:23:27;;;;;;;1.30;0.40;;;;;;;;;;5055524;28;20033;-79
2023/12/26 02:25:54;;;;;;;1.93;1.67;;;;;;;;;;5069803;28;20116;-80
2023/12/26 02:28:20;;;;;;;1.05;0.40;;;;;;;;;;5073941;28;20032;-81
2023/12/26 02:30:48;;;;;;;0.50;0.43;;;;;;;;;;5074494;28;20036;-79
2023/12/26 02:33:14;;;;;;;0.28;0.28;;;;;;;;;;5072304;28;20056;-80
2023/12/26 02:35:40;;;;;;;1.35;0.45;;;;;;;;;;5052256;28;20039;-81
2023/12/26 02:38:06;;;;;;;1.85;0.52;;;;;;;;;;5051886;28;20413;-78
2023/12/26 02:40:32;;;;;;;0.60;0.52;;;;;;;;;;5069401;28;20113;-80
2023/12/26 02:42:57;;;;;;;2.85;1.73;;;;;;;;;;5070749;28;20029;-79
2023/12/26 02:45:23;;;;;;;1.45;0.75;;;;;;;;;;5055433;28;20833;-78
2023/12/26 02:47:48;;;;;;;0.50;0.50;;;;;;;;;;5070390;28;20077;-79
2023/12/26 02:50:14;;;;;;;0.55;0.50;;;;;;;;;;5070205;28;20084;-80
2023/12/26 02:52:41;;;;;;;0.85;0.50;;;;;;;;;;5054148;28;20028;-79
2023/12/26 02:55:07;;;;;;;0.32;0.32;;;;;;;;;;5055533;28;20119;-80
2023/12/26 02:57:32;;;;;;;1.17;0.63;;;;;;;;;;5071942;28;20115;-80
2023/12/26 02:59:58;;;;;;;0.57;0.45;;;;;;;;;;5071496;28;20400;-81
2023/12/26 03:02:23;;;;;;;0.50;0.50;;;;;;;;;;5073652;28;20081;-79
2023/12/26 03:04:51;;;;;;;1.40;0.63;;;;;;;;;;5072470;28;20029;-81
2023/12/26 03:07:17;;;;;;;1.10;0.80;;;;;;;;;;5070536;28;20418;-79
2023/12/26 03:09:42;;;;;;;0.30;0.25;;;;;;;;;;5071748;28;20042;-80
2023/12/26 03:12:08;;;;;;;2.03;1.35;;;;;;;;;;5071807;28;20104;-78
2023/12/26 03:14:33;;;;;;;0.40;0.40;;;;;;;;;;5053649;28;20114;-81
2023/12/26 03:16:59;;;;;;;0.20;0.20;;;;;;;;;;5070004;28;20033;-79
2023/12/26 03:19:24;;;;;;;2.10;0.65;;;;;;;;;;5071681;28;20107;-80
2023/12/26 03:21:52;;;;;;;0.47;0.35;;;;;;;;;;5052310;28;20029;-81
2023/12/26 03:24:18;;;;;;;2.85;0.60;;;;;;;;;;5069965;28;20092;-79
2023/12/26 03:26:43;;;;;;;0.65;0.65;;;;;;;;;;5073600;28;20423;-80
2023/12/26 03:29:12;;;;;;;0.30;0.30;;;;;;;;;;5072624;28;20036;-79
2023/12/26 03:31:45;;;;;;;0.85;0.85;;;;;;;;;;5053475;28;20119;-79
2023/12/26 03:34:11;;;;;;;0.32;0.30;;;;;;;;;;5070668;28;20028;-79
2023/12/26 03:36:43;;;;;;;0.57;0.57;;;;;;;;;;5071350;28;20032;-80
2023/12/26 03:39:09;;;;;;;1.48;1.10;;;;;;;;;;5072302;28;20058;-81
2023/12/26 03:41:36;;;;;;;3.53;0.82;;;;;;;;;;5073468;28;20030;-79
2023/12/26 03:44:06;;;;;;;1.25;0.75;;;;;;;;;;5076008;28;20032;-80
2023/12/26 03:46:31;;;;;;;1.08;0.55;;;;;;;;;;5075712;28;20101;-81
2023/12/26 03:48:57;;;;;;;2.50;0.80;;;;;;;;;;5057573;28;20044;-79
2023/12/26 03:51:22;;;;;;;0.10;0.10;;;;;;;;;;5076445;28;20032;-78
2023/12/26 03:53:48;;;;;;;0.30;0.30;;;;;;;;;;5076432;28;20084;-79
2023/12/26 03:56:13;;;;;;;0.30;0.30;;;;;;;;;;5075546;28;20035;-79
2023/12/26 03:58:38;;;;;;;0.47;0.47;;;;;;;;;;5074485;28;20044;-80
2023/12/26 04:01:07;;;;;;;0.55;0.45;;;;;;;;;;5074532;28;20030;-79
2023/12/26 04:03:32;;;;;;;0.63;0.38;;;;;;;;;;5057365;28;20028;-80
2023/12/26 04:05:58;;;;;;;0.55;0.55;;;;;;;;;;5077062;28;20432;-78
2023/12/26 04:08:23;;;;;;;0.38;0.38;;;;;;;;;;5059727;28;20044;-80
2023/12/26 04:10:49;;;;;;;0.40;0.40;;;;;;;;;;5077299;28;20066;-79
2023/12/26 04:13:14;;;;;;;0.38;0.32;;;;;;;;;;5074462;28;20063;-79
2023/12/26 04:15:44;;;;;;;0.30;0.25;;;;;;;;;;5076593;28;20128;-79
2023/12/26 04:18:09;;;;;;;0.45;0.45;;;;;;;;;;5054860;28;20118;-80
2023/12/26 04:20:42;;;;;;;0.90;0.75;;;;;;;;;;5055864;28;20104;-79
2023/12/26 04:23:07;;;;;;;0.40;0.40;;;;;;;;;;5059001;28;20036;-79
2023/12/26 04:25:33;;;;;;;1.13;0.63;;;;;;;;;;5075088;28;20024;-81
2023/12/26 04:27:58;;;;;;;0.50;0.50;;;;;;;;;;5073989;28;20048;-79
2023/12/26 04:30:24;;;;;;;1.13;0.52;;;;;;;;;;5075807;28;20028;-80
2023/12/26 04:32:49;;;;;;;0.40;0.40;;;;;;;;;;5058496;28;20472;-79
2023/12/26 04:35:17;;;;;;;0.88;0.40;;;;;;;;;;5075243;28;20161;-79
2023/12/26 04:37:45;;;;;;;0.50;0.50;;;;;;;;;;5076458;28;20036;-80
2023/12/26 04:40:14;;;;;;;0.20;0.20;;;;;;;;;;5075590;28;20040;-79
2023/12/26 04:42:39;;;;;;;0.80;0.57;;;;;;;;;;5073445;28;20037;-80
2023/12/26 04:45:05;;;;;;;0.80;0.80;;;;;;;;;;5054687;28;20126;-79
2023/12/26 04:47:31;;;;;;;0.63;0.50;;;;;;;;;;5073520;28;20025;-79
2023/12/26 04:49:58;;;;;;;0.50;0.50;;;;;;;;;;5074911;28;20078;-81
2023/12/26 04:52:24;;;;;;;0.30;0.30;;;;;;;;;;5074529;28;20032;-80
2023/12/26 04:54:49;;;;;;;0.45;0.45;;;;;;;;;;5072098;28;20035;-80
2023/12/26 04:57:15;;;;;;;0.15;0.15;;;;;;;;;;5070563;28;20029;-79
2023/12/26 04:59:40;;;;;;;2.10;0.30;;;;;;;;;;5074277;28;20024;-81
2023/12/26 05:02:06;;;;;;;0.30;0.20;;;;;;;;;;5056516;28;20025;-80
2023/12/26 05:04:32;;;;;;;0.47;0.47;;;;;;;;;;5074206;28;20036;-79
2023/12/26 05:06:59;;;;;;;0.98;0.40;;;;;;;;;;5055550;28;20460;-79
2023/12/26 05:09:25;;;;;;;0.20;0.20;;;;;;;;;;5071010;28;20117;-79
2023/12/26 05:11:51;;;;;;;8.98;1.20;;;;;;;;;;5067550;28;20059;-80
2023/12/26 05:14:18;;;;;;;1.75;0.90;;;;;;;;;;5070279;28;20051;-79
2023/12/26 05:16:45;;;;;;;1.23;0.57;;;;;;;;;;5069284;28;20029;-80
2023/12/26 05:19:10;;;;;;;0.47;0.40;;;;;;;;;;5071410;28;20032;-80
2023/12/26 05:21:36;;;;;;;0.50;0.50;;;;;;;;;;5070028;28;20020;-80
2023/12/26 05:24:03;;;;;;;0.77;0.73;;;;;;;;;;5071380;28;20157;-82
2023/12/26 05:26:28;;;;;;;0.70;0.68;;;;;;;;;;5053492;28;20384;-80
2023/12/26 05:28:54;;;;;;;0.30;0.30;;;;;;;;;;5051337;28;20036;-79
2023/12/26 05:31:22;;;;;;;3.10;0.57;;;;;;;;;;5070162;28;20025;-79
2023/12/26 05:33:47;;;;;;;0.70;0.40;;;;;;;;;;5070921;28;20086;-80
2023/12/26 05:36:13;;;;;;;1.15;1.08;;;;;;;;;;5068491;28;20392;-81
2023/12/26 05:38:41;;;;;;;0.57;0.55;;;;;;;;;;5071818;28;20039;-80
2023/12/26 05:41:07;;;;;;;1.10;0.90;;;;;;;;;;5069765;28;20036;-81
2023/12/26 05:43:36;;;;;;;0.22;0.22;;;;;;;;;;5051671;28;20036;-78
2023/12/26 05:46:02;;;;;;;0.32;0.32;;;;;;;;;;5052370;28;20032;-81
2023/12/26 05:48:27;;;;;;;0.30;0.30;;;;;;;;;;5070128;28;20032;-78
2023/12/26 05:50:55;;;;;;;2.17;1.23;;;;;;;;;;5069061;28;20028;-79
2023/12/26 05:53:22;;;;;;;0.77;0.77;;;;;;;;;;5071740;28;22033;-80
2023/12/26 05:55:48;;;;;;;1.45;0.60;;;;;;;;;;5070271;28;20396;-79
2023/12/26 05:58:13;;;;;;;0.50;0.50;;;;;;;;;;5053275;28;20036;-79
2023/12/26 06:00:39;;;;;;;0.50;0.50;;;;;;;;;;5053848;28;20020;-79
2023/12/26 06:03:04;;;;;;;0.57;0.57;;;;;;;;;;5069750;28;20859;-79
2023/12/26 06:05:30;;;;;;;0.20;0.20;;;;;;;;;;5071047;28;20045;-80
2023/12/26 06:07:55;;;;;;;0.47;0.47;;;;;;;;;;5048955;28;20059;-81
2023/12/26 06:10:20;;;;;;;3.83;1.48;;;;;;;;;;5070225;28;20024;-79
2023/12/26 06:12:46;;;;;;;3.08;1.95;;;;;;;;;;5070098;28;20036;-79
2023/12/26 06:15:13;;;;;;;1.17;1.08;;;;;;;;;;5071237;28;20407;-78
2023/12/26 06:17:39;;;;;;;0.28;0.20;;;;;;;;;;5072164;28;20036;-79
2023/12/26 06:20:06;;;;;;;0.98;0.70;;;;;;;;;;5073274;28;20025;-79
2023/12/26 06:22:31;;;;;;;0.70;0.60;;;;;;;;;;5071359;28;20472;-79
2023/12/26 06:24:57;;;;;;;0.45;0.45;;;;;;;;;;5070545;28;20027;-78
2023/12/26 06:27:22;;;;;;;0.70;0.60;;;;;;;;;;5071594;28;20032;-79
2023/12/26 06:29:48;;;;;;;0.75;0.75;;;;;;;;;;5072052;28;20028;-80
2023/12/26 06:32:13;;;;;;;0.50;0.50;;;;;;;;;;5073525;28;20032;-79
2023/12/26 06:34:39;;;;;;;0.85;0.77;;;;;;;;;;5071097;28;20032;-79
2023/12/26 06:37:04;;;;;;;1.90;1.15;;;;;;;;;;5070359;28;20491;-80
2023/12/26 06:39:31;;;;;;;5.07;1.85;;;;;;;;;;5053980;28;20467;-79
2023/12/26 06:41:56;;;;;;;3.03;1.95;;;;;;;;;;5053549;28;20034;-79
2023/12/26 06:44:22;;;;;;;0.77;0.77;;;;;;;;;;5071353;28;20099;-79
2023/12/26 06:46:47;;;;;;;1.95;0.80;;;;;;;;;;5071414;28;20370;-79
2023/12/26 06:49:16;;;;;;;0.73;0.73;;;;;;;;;;5071556;28;20100;-80
2023/12/26 06:51:42;;;;;;;0.90;0.77;;;;;;;;;;5053362;28;20126;-79
2023/12/26 06:54:07;;;;;;;0.45;0.40;;;;;;;;;;5071492;28;20024;-79
2023/12/26 06:56:35;;;;;;;3.38;1.23;;;;;;;;;;5071884;28;20032;-79
2023/12/26 06:59:00;;;;;;;0.50;0.45;;;;;;;;;;5073207;28;20055;-80
2023/12/26 07:01:26;;;;;;;1.55;1.23;;;;;;;;;;5070806;28;20060;-79
2023/12/26 07:03:52;;;;;;;2.92;1.70;;;;;;;;;;5068815;28;20024;-80
2023/12/26 07:06:17;;;;;;;4.78;3.05;;;;;;;;;;5066297;28;20025;-80
2023/12/26 07:08:43;;;;;;;2.83;2.17;;;;;;;;;;5069281;28;20028;-81
2023/12/26 07:11:08;;;;;;;2.72;2.15;;;;;;;;;;5070514;28;20700;-81
2023/12/26 07:13:33;;;;;;;1.73;0.82;;;;;;;;;;5073640;28;20039;-80
2023/12/26 07:15:59;;;;;;;1.20;0.77;;;;;;;;;;5071198;28;20029;-80
2023/12/26 07:18:24;;;;;;;0.77;0.77;;;;;;;;;;5072129;28;20058;-80
2023/12/26 07:20:50;;;;;;;1.63;1.23;;;;;;;;;;5075506;28;20064;-79
2023/12/26 07:23:15;;;;;;;2.90;1.45;;;;;;;;;;5072668;28;20088;-79
2023/12/26 07:25:43;;;;;;;1.75;1.08;;;;;;;;;;5074005;28;20050;-81
2023/12/26 07:28:10;;;;;;;1.13;0.88;;;;;;;;;;5073040;28;20491;-80
2023/12/26 07:30:38;;;;;;;1.48;1.05;;;;;;;;;;5072786;28;20017;-78
2023/12/26 07:33:04;;;;;;;0.68;0.68;;;;;;;;;;5072162;28;20036;-80
2023/12/26 07:35:30;;;;;;;1.55;1.05;;;;;;;;;;5069359;28;20032;-82
2023/12/26 07:37:56;;;;;;;2.92;1.85;;;;;;;;;;5073971;28;20081;-80
2023/12/26 07:40:21;;;;;;;1.92;1.60;;;;;;;;;;5068548;28;20040;-79
2023/12/26 07:42:47;;;;;;;2.58;1.42;;;;;;;;;;5066138;28;20031;-79
2023/12/26 07:45:13;;;;;;;1.52;1.40;;;;;;;;;;5066724;28;20036;-80
2023/12/26 07:47:38;;;;;;;0.88;0.85;;;;;;;;;;5071401;28;20060;-78
2023/12/26 07:50:04;;;;;;;1.30;0.80;;;;;;;;;;5070762;28;20111;-79
2023/12/26 07:52:29;;;;;;;1.58;0.82;;;;;;;;;;5071328;28;20071;-80
2023/12/26 07:54:55;;;;;;;1.10;1.00;;;;;;;;;;5049610;28;20452;-79
2023/12/26 07:57:20;;;;;;;1.67;0.98;;;;;;;;;;5068736;28;20024;-79
2023/12/26 07:59:45;;;;;;;0.30;0.30;;;;;;;;;;5072634;28;20025;-79
2023/12/26 08:02:11;;;;;;;0.63;0.63;;;;;;;;;;5069494;28;20024;-79
2023/12/26 08:04:36;;;;;;;2.10;1.25;;;;;;;;;;5073671;28;20032;-79
2023/12/26 08:07:02;;;;;;;0.70;0.70;;;;;;;;;;5052820;28;20040;-79
2023/12/26 08:09:27;;;;;;;0.98;0.80;;;;;;;;;;5055139;28;20037;-79
2023/12/26 08:11:53;;;;;;;2.70;1.33;;;;;;;;;;5073771;28;20036;-78
2023/12/26 08:14:18;;;;;;;1.08;0.98;;;;;;;;;;5054320;28;20408;-78
2023/12/26 08:16:45;;;;;;;1.33;1.23;;;;;;;;;;5073727;28;20048;-79
2023/12/26 08:19:11;;;;;;;1.55;1.15;;;;;;;;;;5071731;28;20031;-79
2023/12/26 08:21:37;;;;;;;1.17;0.60;;;;;;;;;;5073004;28;20028;-79
2023/12/26 08:24:03;;;;;;;1.73;1.35;;;;;;;;;;5072360;28;20021;-79
2023/12/26 08:26:31;;;;;;;1.77;1.52;;;;;;;;;;5072571;28;20035;-79
2023/12/26 08:28:56;;;;;;;5.25;2.15;;;;;;;;;;5072259;28;20063;-80
2023/12/26 08:31:21;;;;;;;2.60;2.17;;;;;;;;;;5073437;28;20044;-79
2023/12/26 08:33:47;;;;;;;3.47;2.25;;;;;;;;;;5075307;28;20046;-80
2023/12/26 08:36:12;;;;;;;2.28;1.85;;;;;;;;;;5075978;28;20036;-78
2023/12/26 08:38:39;;;;;;;2.20;1.75;;;;;;;;;;5075373;28;20369;-79
2023/12/26 08:41:06;;;;;;;2.97;2.05;;;;;;;;;;5077065;28;20035;-79
2023/12/26 08:43:33;;;;;;;2.22;1.90;;;;;;;;;;5076722;28;20464;-79
2023/12/26 08:45:58;;;;;;;9.57;2.95;;;;;;;;;;5072875;28;20020;-80
2023/12/26 08:48:24;;;;;;;3.45;1.40;;;;;;;;;;5076977;28;20073;-79
2023/12/26 08:50:49;;;;;;;1.52;1.42;;;;;;;;;;5074930;28;20028;-80
2023/12/26 08:53:15;;;;;;;3.80;2.72;;;;;;;;;;5076515;28;20365;-80
2023/12/26 08:55:45;;;;;;;4.65;1.92;;;;;;;;;;5074921;28;20016;-80
2023/12/26 08:58:10;;;;;;;3.38;2.83;;;;;;;;;;5075714;28;20020;-79
2023/12/26 09:00:36;;;;;;;2.05;1.50;;;;;;;;;;5077342;28;20384;-78
2023/12/26 09:03:01;;;;;;;3.28;2.08;;;;;;;;;;5077545;28;20460;-78
2023/12/26 09:05:27;;;;;;;7.05;2.72;;;;;;;;;;5058760;28;20040;-80
2023/12/26 09:07:52;;;;;;;3.55;1.95;;;;;;;;;;5075631;28;20467;-79
2023/12/26 09:10:18;;;;;;;4.97;2.08;;;;;;;;;;5076897;28;20082;-80
2023/12/26 09:12:43;;;;;;;2.60;1.73;;;;;;;;;;5076263;28;20416;-79
2023/12/26 09:15:09;;;;;;;2.45;1.60;;;;;;;;;;5075687;28;20037;-79
2023/12/26 09:17:36;;;;;;;2.88;2.13;;;;;;;;;;5076831;28;20079;-79
2023/12/26 09:20:02;;;;;;;3.80;2.20;;;;;;;;;;5076670;28;20029;-79
2023/12/26 09:22:27;;;;;;;2.03;1.83;;;;;;;;;;5076492;28;20067;-79
2023/12/26 09:24:53;;;;;;;2.05;1.50;;;;;;;;;;5074971;28;20027;-79
2023/12/26 09:27:18;;;;;;;5.38;2.30;;;;;;;;;;5077039;28;20056;-79
2023/12/26 09:29:44;;;;;;;6.80;2.47;;;;;;;;;;5074018;28;20048;-79
2023/12/26 09:32:09;;;;;;;2.83;1.55;;;;;;;;;;5075697;28;20024;-80
2023/12/26 09:34:35;;;;;;;1.05;0.90;;;;;;;;;;5074053;28;20024;-78
2023/12/26 09:37:00;;;;;;;3.28;1.73;;;;;;;;;;5074629;28;20086;-79
2023/12/26 09:39:25;;;;;;;2.00;1.10;;;;;;;;;;5073694;28;20028;-79
2023/12/26 09:41:55;;;;;;;0.82;0.65;;;;;;;;;;5070957;28;20024;-79
2023/12/26 09:44:21;;;;;;;3.33;1.40;;;;;;;;;;5072407;28;20024;-79
2023/12/26 09:46:46;;;;;;;3.40;1.52;;;;;;;;;;5070152;28;20388;-78
2023/12/26 09:49:12;;;;;;;2.97;1.88;;;;;;;;;;5072709;28;20051;-79
2023/12/26 09:51:45;;;;;;;1.48;1.08;;;;;;;;;;5074087;28;20028;-79
2023/12/26 09:54:12;;;;;;;1.92;1.00;;;;;;;;;;5074517;28;20041;-78
2023/12/26 09:56:43;;;;;;;2.17;1.30;;;;;;;;;;5073350;28;20111;-79
2023/12/26 09:59:12;;;;;;;1.38;1.20;;;;;;;;;;5070709;28;20021;-80
2023/12/26 10:01:37;;;;;;;2.10;0.98;;;;;;;;;;5069709;28;20070;-79
2023/12/26 10:04:05;;;;;;;2.40;1.33;;;;;;;;;;5071700;28;20028;-80
2023/12/26 10:06:30;;;;;;;6.00;2.08;;;;;;;;;;5058509;28;20021;-79
2023/12/26 10:08:57;;;;;;;1.40;1.23;;;;;;;;;;5074175;28;20116;-79
2023/12/26 10:11:23;;;;;;;3.22;1.60;;;;;;;;;;5072002;28;20028;-79
2023/12/26 10:13:53;;;;;;;3.90;1.77;;;;;;;;;;5074628;28;20077;-79
2023/12/26 10:16:19;;;;;;;;;;;;;;;;;;5053443;28;20380;-79
2023/12/26 10:18:45;;;;;;;3.33;1.60;;;;;;;;;;5073467;28;19913;-79
2023/12/26 10:21:11;;;;;;;2.58;1.95;;;;;;;;;;5054811;28;20545;-79
2023/12/26 10:23:37;;;;;;;3.63;2.25;;;;;;;;;;5074653;28;20407;-78
2023/12/26 10:26:02;;;;;;;3.15;1.60;;;;;;;;;;5074388;28;20092;-78
2023/12/26 10:28:28;;;;;;;1.35;1.20;;;;;;;;;;5074655;28;20028;-78
2023/12/26 10:30:54;;;;;;;3.10;1.35;;;;;;;;;;5072620;28;20029;-81
2023/12/26 10:33:26;;;;;;;2.17;1.35;;;;;;;;;;5071576;28;20035;-79
2023/12/26 10:36:06;;;;;;;3.33;1.35;;;;;;;;;;5054446;28;20033;-79
2023/12/26 10:38:33;;;;;;;;;;;;;;;;;;5072725;28;20039;-78
2023/12/26 10:41:00;;;;;;;3.60;1.98;;;;;;;;;;5073395;28;19912;-79
2023/12/26 10:43:28;;;;;;;6.82;2.15;;;;;;;;;;5072232;28;20555;-79
2023/12/26 10:45:59;;;;;;;1.35;1.00;;;;;;;;;;5055537;28;20024;-79
2023/12/26 10:48:33;;;;;;;1.77;1.17;;;;;;;;;;5071699;28;20036;-78
2023/12/26 10:51:04;;;;;;;3.38;0.73;;;;;;;;;;5071052;28;20047;-78
2023/12/26 10:53:45;;;;;;;3.90;1.70;;;;;;;;;;5070559;28;20438;-78
2023/12/26 10:56:14;;;;;;;2.42;1.08;;;;;;;;;;5069420;28;20032;-78
2023/12/26 10:58:40;;;;;;;3.85;1.60;;;;;;;;;;5069030;28;20032;-79
2023/12/26 13:52:25;;;;;;;0.50;0.50;;;;;;;;;;5074659;28;20086;-79
2023/12/26 13:54:51;;;;;;;0.50;0.35;;;;;;;;;;5073120;28;20036;-79
2023/12/26 13:57:16;;;;;;;1.15;1.02;;;;;;;;;;5074499;28;20021;-80
2023/12/26 13:59:42;;;;;;;1.25;0.93;;;;;;;;;;5072533;28;20021;-81
2023/12/26 14:02:07;;;;;;;2.33;1.30;;;;;;;;;;5071871;28;20067;-79
2023/12/26 14:04:33;;;;;;;1.25;1.13;;;;;;;;;;5073588;28;20033;-80
2023/12/26 14:06:59;;;;;;;1.00;0.88;;;;;;;;;;5055932;28;20023;-81
2023/12/26 14:09:24;;;;;;;1.75;1.00;;;;;;;;;;5072423;28;20111;-79
2023/12/26 14:11:49;;;;;;;2.50;0.68;;;;;;;;;;5071677;28;20511;-81
2023/12/26 14:14:15;;;;;;;0.82;0.73;;;;;;;;;;5071676;28;20041;-79
2023/12/26 14:16:40;;;;;;;0.88;0.77;;;;;;;;;;5073111;28;20039;-79
2023/12/26 14:19:06;;;;;;;1.75;0.88;;;;;;;;;;5071506;28;20032;-79
2023/12/26 14:21:31;;;;;;;2.45;0.80;;;;;;;;;;5072780;28;20032;-79
2023/12/26 14:23:56;;;;;;;1.23;0.93;;;;;;;;;;5073350;28;20028;-80
2023/12/26 14:26:23;;;;;;;1.38;0.68;;;;;;;;;;5075057;28;20074;-80
2023/12/26 14:28:48;;;;;;;2.25;1.80;;;;;;;;;;5076535;28;20032;-80
2023/12/26 14:31:14;;;;;;;1.25;1.02;;;;;;;;;;5057423;28;20123;-79
2023/12/26 14:33:39;;;;;;;2.60;1.73;;;;;;;;;;5075290;28;20824;-78
2023/12/26 14:36:06;;;;;;;1.77;1.15;;;;;;;;;;5057248;28;20056;-79
2023/12/26 14:38:31;;;;;;;4.40;1.38;;;;;;;;;;5073665;28;20461;-80
2023/12/26 14:40:57;;;;;;;2.58;1.75;;;;;;;;;;5070969;28;20027;-80
2023/12/26 14:43:23;;;;;;;2.72;1.70;;;;;;;;;;5074676;28;20032;-79
2023/12/26 14:45:49;;;;;;;1.33;1.20;;;;;;;;;;5074136;28;20107;-79
2023/12/26 14:48:14;;;;;;;2.67;1.60;;;;;;;;;;5074228;28;20066;-79
2023/12/26 14:50:39;;;;;;;3.33;2.33;;;;;;;;;;5074166;28;20032;-79
2023/12/26 14:53:05;;;;;;;3.40;2.28;;;;;;;;;;5074276;28;20024;-80
2023/12/26 14:55:33;;;;;;;3.95;2.10;;;;;;;;;;5073494;28;20703;-79
2023/12/26 14:57:58;;;;;;;4.13;2.20;;;;;;;;;;5073893;28;20032;-80
2023/12/26 15:00:24;;;;;;;2.50;1.98;;;;;;;;;;5071808;28;20047;-81
2023/12/26 15:02:49;;;;;;;1.15;0.88;;;;;;;;;;5069801;28;20036;-80
2023/12/26 15:05:15;;;;;;;0.40;0.40;;;;;;;;;;5069875;28;20032;-79
2023/12/26 15:07:40;;;;;;;0.73;0.70;;;;;;;;;;5070924;28;20039;-80
2023/12/26 15:10:06;;;;;;;1.52;0.68;;;;;;;;;;5073679;28;20032;-81
2023/12/26 15:12:31;;;;;;;0.30;0.20;;;;;;;;;;5072157;28;20456;-79
2023/12/26 15:14:57;;;;;;;0.93;0.90;;;;;;;;;;5067903;28;20037;-79
2023/12/26 15:17:23;;;;;;;0.50;0.50;;;;;;;;;;5070352;28;20031;-78
2023/12/26 15:19:48;;;;;;;0.57;0.57;;;;;;;;;;5073136;28;20025;-82
2023/12/26 15:22:15;;;;;;;1.88;1.35;;;;;;;;;;5054836;28;20032;-82
2023/12/26 15:24:41;;;;;;;1.80;1.20;;;;;;;;;;5071428;28;20123;-79
2023/12/26 15:27:06;;;;;;;1.42;1.20;;;;;;;;;;5071022;28;20095;-80
2023/12/26 15:29:32;;;;;;;1.67;0.82;;;;;;;;;;5072128;28;20039;-79
2023/12/26 15:31:57;;;;;;;1.45;0.40;;;;;;;;;;5072905;28;20024;-80
2023/12/26 15:34:23;;;;;;;0.38;0.35;;;;;;;;;;5071151;28;20048;-81
2023/12/26 15:36:49;;;;;;;1.48;0.70;;;;;;;;;;5069406;28;20100;-79
2023/12/26 15:39:14;;;;;;;0.55;0.52;;;;;;;;;;5072461;28;20395;-82
2023/12/26 15:41:40;;;;;;;1.60;0.98;;;;;;;;;;5069557;28;20105;-80
2023/12/26 15:44:07;;;;;;;0.93;0.85;;;;;;;;;;5070839;28;20085;-82
2023/12/26 15:46:33;;;;;;;1.05;0.82;;;;;;;;;;5070830;28;20036;-81
2023/12/26 15:48:58;;;;;;;1.23;1.00;;;;;;;;;;5050337;28;20029;-80
2023/12/26 15:51:24;;;;;;;2.30;1.73;;;;;;;;;;5069850;28;20032;-81
2023/12/26 15:53:50;;;;;;;3.85;1.25;;;;;;;;;;5070355;28;20029;-81
2023/12/26 15:56:21;;;;;;;1.40;0.95;;;;;;;;;;5067815;28;20479;-80
2023/12/26 15:58:48;;;;;;;0.65;0.63;;;;;;;;;;5066033;28;20040;-79
2023/12/26 16:01:17;;;;;;;1.13;0.70;;;;;;;;;;5069000;28;20586;-80
2023/12/26 16:03:45;;;;;;;0.50;0.50;;;;;;;;;;5049916;28;20031;-82
2023/12/26 16:06:21;;;;;;;0.47;0.47;;;;;;;;;;5068660;28;20029;-82
2023/12/26 16:08:47;;;;;;;2.50;1.45;;;;;;;;;;5049429;28;20447;-82
2023/12/26 16:11:13;;;;;;;1.08;0.98;;;;;;;;;;5067928;28;20145;-81
2023/12/26 16:13:39;;;;;;;0.65;0.65;;;;;;;;;;5066327;28;20484;-81
2023/12/26 16:16:04;;;;;;;1.52;1.08;;;;;;;;;;5066714;28;20052;-81
2023/12/26 16:18:30;;;;;;;1.48;0.93;;;;;;;;;;5068600;28;20020;-80
2023/12/26 16:20:55;;;;;;;1.92;0.93;;;;;;;;;;5070053;28;20035;-80
2023/12/26 16:23:21;;;;;;;1.48;1.08;;;;;;;;;;5068591;28;20024;-80
2023/12/26 16:25:46;;;;;;;1.10;0.98;;;;;;;;;;5068583;28;20032;-79
2023/12/26 16:28:12;;;;;;;3.13;0.80;;;;;;;;;;5050365;28;20032;-80
2023/12/26 16:30:38;;;;;;;1.10;0.88;;;;;;;;;;5050059;28;20028;-80
2023/12/26 16:33:04;;;;;;;0.93;0.50;;;;;;;;;;5067519;28;20070;-80
2023/12/26 16:35:30;;;;;;;0.98;0.80;;;;;;;;;;5068924;28;20028;-82
2023/12/26 16:37:55;;;;;;;1.27;0.85;;;;;;;;;;5066774;28;20522;-82
2023/12/26 16:40:21;;;;;;;0.77;0.63;;;;;;;;;;5063880;28;20120;-79
2023/12/26 16:42:46;;;;;;;1.10;1.00;;;;;;;;;;5064909;28;20686;-79
2023/12/26 16:45:16;;;;;;;0.50;0.50;;;;;;;;;;5066949;28;20029;-80
2023/12/26 16:47:41;;;;;;;0.65;0.63;;;;;;;;;;5065220;28;20511;-80
2023/12/26 16:50:07;;;;;;;3.47;1.23;;;;;;;;;;5066691;28;20032;-80
2023/12/26 16:52:33;;;;;;;0.50;0.50;;;;;;;;;;5068727;28;20102;-79
2023/12/26 16:54:58;;;;;;;1.08;0.68;;;;;;;;;;5052302;28;20042;-81
2023/12/26 16:57:26;;;;;;;0.55;0.55;;;;;;;;;;5069840;28;20755;-79
2023/12/26 16:59:53;;;;;;;0.38;0.38;;;;;;;;;;5070121;28;20024;-81
2023/12/26 17:02:19;;;;;;;2.25;0.75;;;;;;;;;;5069917;28;20048;-79
2023/12/26 17:04:44;;;;;;;0.75;0.68;;;;;;;;;;5068259;28;20074;-80
2023/12/26 17:07:10;;;;;;;1.10;1.00;;;;;;;;;;5070033;28;20024;-79
2023/12/26 17:09:41;;;;;;;0.80;0.60;;;;;;;;;;5070339;28;20032;-80
2023/12/26 17:12:10;;;;;;;0.50;0.50;;;;;;;;;;5048160;28;20471;-78
2023/12/26 17:14:36;;;;;;;1.67;0.73;;;;;;;;;;5071060;28;20044;-79
2023/12/26 17:17:03;;;;;;;1.85;0.85;;;;;;;;;;5070121;28;20047;-80
2023/12/26 17:19:29;;;;;;;1.80;1.05;;;;;;;;;;5069764;28;20040;-82
2023/12/26 17:21:55;;;;;;;0.52;0.52;;;;;;;;;;5069534;28;20035;-81
2023/12/26 17:24:21;;;;;;;1.45;0.50;;;;;;;;;;5050689;28;20028;-81
2023/12/26 17:26:46;;;;;;;0.68;0.60;;;;;;;;;;5052053;28;20029;-81
2023/12/26 17:29:12;;;;;;;0.60;0.60;;;;;;;;;;5069190;28;20032;-80